YXES weather

Esk Hospital Helipad
Esk, Queensland, Australia

Public forecast

Using degrees Celsius for public forecast. Weather courtesy of forecast.io.

Closest aviation weather report (METAR) to Esk Hospital Helipad

Closest report is RAAF Base Amberley, 28.7 nm (53.1 km) SSE. Retrieved 2019/10/14 14:30 UTC (0 seconds ago):

YAMB 141430Z AUTO 10004KT 9999 // NCD 16/14 Q1014

Closest aviation forecast (TAF) to Esk Hospital Helipad

Closest forecast is RAAF Base Amberley, 28.7 nm (53.1 km) SSE. Retrieved 2019/10/14 12:00 UTC (2 hours ago):

TAF YAMB 141114Z 1412/1506 08006KT 9999 SCT030 FM141600 07005KT 9999 SCT010 BKN025 FM142300 06010KT 9999 SCT035 TEMPO 1415/1422 9999 BKN010